Elbow Lake, Minnesota
Current Conditions -  °F | °C
As of 2:53 AM on Saturday 20 Dec 2014 (Local Time) from KY63 Reporting Station
Haze Haze  
Wind Chill: 19°   Ceiling: 500
Heat Index: 30°   Visibility: 5mi
Dew Point: 29°   Wind: 14mph
Humidity: 96%   Direction: 190°S
Pressure: 30.05"   Gusts: NA
Location:  45.99°N, 95.98°W
Report Text: KY63 200853Z AUTO 19012KT 5SM BR OVC005 M01/M02 A3005 RMK AO2 T10131018
Loading
Personal Weather Stations






























Interactive Weather Map New forecast layout! Learn more

10-Day Weather Forecast

Advertisements
Track Severe Weather on mobile